Latest Weather Observations for PORTABLE QFRD

IDQ60801

Issued at 5:03 pm EST Thursday 23 November 2017 (issued every 30 minutes, with the page automatically refreshed every 10 minutes)

About weather observations | Map of weather stations | Latest weather observations for QLD | Other Formats
Station Details ID: 250058 Name: PORTABLE QFRD Lat: -27.37 Lon: 151.09 Height: 350.0 m
Data from the previous 72 hours. | See also: Recent months for locations in Queensland
Date/Time
EST
Temp
°C
App
Temp
°C
Dew
Point
°C
Rel
Hum
%
Delta-T
°C
Wind Press
QNH
hPa
Press
MSL
hPa
Rain since
9am
mm
Dir  Spd
km/h
Gust
km/h
Spd
kts
Gust
kts
23/04:30pm 23.8 20.2 11.8 47 6.9 ENE 22 26 12 14 - - 0.0
23/04:00pm 24.5 21.2 9.6 39 8.3 ESE 17 20 9 11 - - 0.0
23/03:30pm 24.5 21.5 9.4 38 8.4 ESE 15 20 8 11 - - 0.0
23/03:00pm 24.3 21.7 10.7 42 7.7 ESE 15 19 8 10 - - 0.0
23/02:30pm 24.9 23.1 10.8 41 8.0 E 11 19 6 10 - - 0.0
23/02:00pm 24.3 21.5 10.0 40 8.0 E 15 19 8 10 - - 0.0
23/01:30pm 24.1 21.8 11.8 46 7.1 ENE 15 22 8 12 - - 0.0
23/01:00pm 24.0 22.1 11.9 46 7.0 ENE 13 26 7 14 - - 0.0
23/12:30pm 23.0 20.7 10.6 45 6.9 E 13 19 7 10 - - 0.0
23/12:00pm 22.7 20.9 10.9 47 6.6 E 11 19 6 10 - - 0.0
23/11:30am 22.3 20.1 12.2 52 5.8 E 15 17 8 9 - - 0.0
23/11:00am 21.7 19.5 12.1 54 5.5 E 15 20 8 11 - - 0.0
23/10:30am 20.9 17.9 11.8 56 5.2 E 19 22 10 12 - - 0.0
23/09:30am 19.7 16.4 12.8 64 4.0 E 22 28 12 15 - - 0.0
23/09:00am 18.7 15.0 12.7 68 3.4 E 24 28 13 15 - - 2.2
23/08:30am 17.8 13.3 12.7 72 2.9 ENE 28 30 15 16 - - 2.2
23/08:00am 17.4 13.2 13.4 77 2.3 E 28 30 15 16 - - 2.2
23/07:30am 16.7 12.8 13.2 80 2.0 E 26 28 14 15 - - 2.2
23/07:00am 16.5 12.8 12.7 78 2.1 ESE 24 28 13 15 - - 2.2
23/06:30am 15.9 12.1 12.3 79 2.0 ESE 24 26 13 14 - - 2.2
23/06:00am 15.0 11.4 12.0 82 1.7 E 22 24 12 13 - - 2.2
23/05:30am 14.0 10.4 11.9 87 1.1 E 22 24 12 13 - - 2.2
23/05:00am 13.8 10.6 11.8 88 1.1 E 20 24 11 13 - - 2.2
23/04:30am 13.9 10.3 11.9 88 1.1 ESE 22 24 12 13 - - 2.2
23/04:00am 14.1 10.2 12.1 88 1.1 E 24 26 13 14 - - 2.2
23/03:30am 14.0 9.7 12.1 88 1.0 ESE 26 28 14 15 - - 2.2
23/03:00am 14.1 9.8 12.2 88 1.0 E 26 28 14 15 - - 2.2
23/02:30am 14.1 9.9 12.3 89 1.0 ESE 26 30 14 16 - - 2.2
23/02:00am 14.2 10.8 12.4 89 1.0 ESE 22 26 12 14 - - 2.2
23/01:30am 14.3 10.9 12.4 88 1.1 E 22 26 12 14 - - 2.2
23/12:30am 14.3 10.5 12.5 89 1.0 E 24 28 13 15 - - 2.2
23/12:00am 14.5 10.8 12.7 89 1.0 E 24 28 13 15 - - 2.2
 
Date/Time
EST
Temp
°C
App
Temp
°C
Dew
Point
°C
Rel
Hum
%
Delta-T
°C
Wind Press
QNH
hPa
Press
MSL
hPa
Rain since
9am
mm
Dir  Spd
km/h
Gust
km/h
Spd
kts
Gust
kts
22/11:30pm 14.7 11.0 12.8 88 1.1 E 24 26 13 14 - - 2.2
22/11:00pm 14.6 10.9 12.8 89 1.0 E 24 26 13 14 - - 2.2
22/10:30pm 14.7 11.4 12.9 89 1.0 E 22 26 12 14 - - 2.2
22/10:00pm 14.8 11.2 13.1 89 1.0 E 24 28 13 15 - - 2.2
22/09:30pm 14.8 11.6 13.0 89 1.0 E 22 26 12 14 - - 2.2
22/09:00pm 14.8 11.5 12.8 88 1.1 E 22 26 12 14 - - 2.2
22/08:30pm 14.9 11.6 12.8 87 1.2 E 22 26 12 14 - - 2.2
22/08:00pm 14.9 12.2 12.9 88 1.1 E 19 20 10 11 - - 2.2
22/07:30pm 15.1 12.2 12.8 86 1.3 E 20 24 11 13 - - 2.2
22/07:00pm 15.2 12.2 12.7 85 1.4 E 20 22 11 12 - - 2.2
22/06:30pm 14.9 11.3 13.1 89 1.0 E 24 26 13 14 - - 2.2
22/06:00pm 14.3 10.7 13.1 92 0.7 E 24 30 13 16 - - 1.8
22/05:30pm 15.4 10.6 14.1 92 0.7 ESE 32 33 17 18 - - 1.2
22/05:00pm 20.3 16.8 11.0 55 5.2 ENE 20 22 11 12 - - 0.0
22/04:30pm 20.7 16.5 11.1 54 5.4 ENE 24 28 13 15 - - 0.0
22/04:00pm 21.0 16.6 8.9 46 6.5 E 22 28 12 15 - - 0.0
22/03:30pm 21.3 16.2 9.3 46 6.5 ESE 26 30 14 16 - - 0.0
22/03:00pm 22.0 17.0 9.7 45 6.7 E 26 28 14 15 - - 0.0
22/02:30pm 21.9 16.8 9.1 44 6.9 ESE 26 32 14 17 - - 0.0
22/02:00pm 22.7 18.4 9.5 43 7.2 E 22 30 12 16 - - 0.0
22/01:30pm 22.6 18.7 10.8 47 6.6 ESE 22 30 12 16 - - 0.0
22/01:00pm 22.5 18.1 10.5 46 6.7 E 24 26 13 14 - - 0.0
22/12:30pm 22.2 18.2 10.6 47 6.5 E 22 26 12 14 - - 0.0
22/12:00pm 21.2 17.6 10.6 50 5.9 ESE 20 24 11 13 - - 0.0
22/11:30am 20.9 16.9 10.5 51 5.8 E 22 28 12 15 - - 0.0
22/11:00am 20.9 16.4 11.3 54 5.4 E 26 28 14 15 - - 0.0
22/10:00am 19.7 15.3 11.7 60 4.5 E 26 30 14 16 - - 0.0
22/09:30am 19.1 14.1 10.8 58 4.6 E 28 33 15 18 - - 0.0
22/09:00am 18.3 14.0 12.0 66 3.5 ESE 26 30 14 16 - - 0.0
22/08:30am 17.8 12.8 12.2 70 3.1 E 30 32 16 17 - - 0.0
22/08:00am 17.5 11.9 11.5 68 3.3 ESE 32 35 17 19 - - 0.0
22/07:30am 16.1 10.8 11.2 72 2.7 ESE 30 33 16 18 - - 0.0
22/07:00am 15.6 10.6 11.0 74 2.5 ESE 28 32 15 17 - - 0.0
22/06:30am 14.8 10.4 10.4 75 2.3 ESE 24 28 13 15 - - 0.0
22/06:00am 13.9 9.8 10.1 78 2.0 ESE 22 24 12 13 - - 0.0
22/05:30am 13.4 9.2 9.7 78 1.9 ESE 22 26 12 14 - - 0.0
22/05:00am 13.0 8.4 9.5 79 1.8 ESE 24 26 13 14 - - 0.0
22/04:30am 12.8 8.2 9.6 81 1.7 ESE 24 26 13 14 - - 0.0
22/04:00am 12.8 8.7 10.0 83 1.5 ESE 22 26 12 14 - - 0.0
22/03:30am 12.6 8.5 10.0 84 1.4 ESE 22 24 12 13 - - 0.0
22/03:00am 12.6 8.9 10.2 85 1.3 ESE 20 24 11 13 - - 0.0
22/02:30am 12.8 8.7 10.1 84 1.4 ESE 22 28 12 15 - - 0.0
22/02:00am 12.8 8.7 10.0 83 1.5 ESE 22 26 12 14 - - 0.0
22/01:30am 13.1 8.9 9.8 80 1.7 E 22 26 12 14 - - 0.0
22/01:00am 12.9 9.1 9.8 81 1.6 E 20 24 11 13 - - 0.0
22/12:30am 13.2 9.0 9.9 80 1.7 E 22 26 12 14 - - 0.0
22/12:00am 13.3 9.5 9.7 79 1.9 E 20 22 11 12 - - 0.0
 
Date/Time
EST
Temp
°C
App
Temp
°C
Dew
Point
°C
Rel
Hum
%
Delta-T
°C
Wind Press
QNH
hPa
Press
MSL
hPa
Rain since
9am
mm
Dir  Spd
km/h
Gust
km/h
Spd
kts
Gust
kts
21/11:30pm 13.9 9.2 9.4 74 2.3 E 24 28 13 15 - - 0.0
21/11:00pm 14.3 8.6 8.5 68 3.0 ESE 28 33 15 18 - - 0.0
21/10:30pm 14.4 9.2 9.0 70 2.8 ESE 26 30 14 16 - - 0.0
21/10:00pm 14.7 9.5 8.9 68 3.0 E 26 30 14 16 - - 0.0
21/09:30pm 15.0 9.9 10.7 75 2.3 ESE 28 33 15 18 - - 0.0
21/09:00pm 15.3 11.3 11.7 79 2.0 E 24 30 13 16 - - 0.0
21/08:30pm 15.5 11.6 13.2 86 1.3 ESE 26 28 14 15 - - 0.0
21/08:00pm 15.5 12.5 13.7 89 1.0 E 22 24 12 13 - - 0.0
21/07:30pm 15.8 12.2 13.0 83 1.6 E 24 26 13 14 - - 0.0
21/07:00pm 15.8 12.9 12.9 83 1.6 ESE 20 22 11 12 - - 0.0
21/06:30pm 15.9 13.1 12.6 81 1.8 E 19 22 10 12 - - 0.0
21/06:00pm 16.6 13.0 12.0 74 2.6 E 22 24 12 13 - - 0.0
21/05:30pm 16.8 12.9 13.4 80 1.9 E 26 30 14 16 - - 0.0
21/05:00pm 17.9 13.2 13.1 73 2.7 E 30 32 16 17 - - 0.0
21/04:30pm 18.1 12.6 12.5 70 3.2 ESE 33 37 18 20 - - 0.0
21/04:00pm 18.5 12.8 11.8 65 3.7 E 33 37 18 20 - - 0.0
21/03:30pm 19.2 13.6 12.0 63 4.1 E 33 39 18 21 - - 0.0
21/03:00pm 18.7 11.6 12.2 66 3.7 E 41 44 22 24 - - 0.0
21/02:30pm 22.6 17.8 10.3 45 6.8 E 26 30 14 16 - - 0.0
21/02:00pm 22.7 18.2 10.2 45 6.9 ESE 24 26 13 14 - - 0.0
21/01:30pm 22.8 18.3 10.2 44 7.0 E 24 32 13 17 - - 0.0
21/01:00pm 21.9 18.5 11.2 50 6.0 E 20 26 11 14 - - 0.0
21/12:30pm 22.3 18.5 11.3 49 6.2 ENE 22 26 12 14 - - 0.0
21/12:00pm 22.3 18.4 10.8 48 6.4 E 22 26 12 14 - - 0.0
21/11:30am 21.7 17.4 10.6 49 6.2 E 24 28 13 15 - - 0.0
21/11:00am 20.6 16.3 9.3 48 6.1 ESE 22 26 12 14 - - 0.0
21/10:30am 21.0 16.3 10.7 51 5.7 E 26 32 14 17 - - 0.0
21/10:00am 20.5 15.5 9.4 49 6.0 E 26 32 14 17 - - 0.0
21/09:30am 20.2 16.2 10.3 53 5.4 ESE 22 28 12 15 - - 0.0
21/09:00am 19.2 14.2 9.6 53 5.2 E 26 32 14 17 - - 0.0
21/08:30am 18.1 14.3 11.0 63 3.9 ESE 22 28 12 15 - - 0.0
21/08:00am 16.8 13.0 11.2 69 3.1 ESE 22 26 12 14 - - 0.0
21/07:30am 16.1 13.4 11.7 75 2.4 ESE 17 19 9 10 - - 0.0
21/07:00am 15.8 12.7 11.6 76 2.3 E 19 22 10 12 - - 0.0
21/06:30am 14.7 11.4 11.5 81 1.7 E 20 24 11 13 - - 0.0
21/06:00am 14.5 11.7 11.4 82 1.7 E 17 20 9 11 - - 0.0
21/05:30am 14.2 11.9 11.6 84 1.4 E 15 17 8 9 - - 0.0
21/05:00am 13.8 11.1 11.6 86 1.2 E 17 17 9 9 - - 0.0
21/04:30am 14.0 11.3 11.6 85 1.3 E 17 22 9 12 - - 0.0
21/04:00am 14.1 10.9 11.3 83 1.5 E 19 22 10 12 - - 0.0
21/03:30am 14.1 11.3 11.5 84 1.4 ESE 17 19 9 10 - - 0.0
21/03:00am 14.3 11.2 11.5 83 1.5 ESE 19 22 10 12 - - 0.0
21/02:30am 14.0 10.8 11.3 84 1.5 ESE 19 20 10 11 - - 0.0
21/02:00am 14.1 11.3 11.4 84 1.5 ESE 17 19 9 10 - - 0.0
21/01:30am 14.4 11.6 11.3 81 1.7 ESE 17 20 9 11 - - 0.0
21/01:00am 14.4 11.6 11.2 81 1.7 ESE 17 19 9 10 - - 0.0
21/12:30am 14.4 11.9 11.2 81 1.7 ESE 15 17 8 9 - - 0.0
21/12:00am 14.4 11.6 11.5 83 1.6 ESE 17 20 9 11 - - 0.0
 
Date/Time
EST
Temp
°C
App
Temp
°C
Dew
Point
°C
Rel
Hum
%
Delta-T
°C
Wind Press
QNH
hPa
Press
MSL
hPa
Rain since
9am
mm
Dir  Spd
km/h
Gust
km/h
Spd
kts
Gust
kts
20/11:30pm 14.7 12.5 12.1 84 1.4 E 15 17 8 9 - - 0.0
20/11:00pm 14.6 12.4 12.1 85 1.4 ESE 15 19 8 10 - - 0.0
20/10:30pm 14.7 12.1 12.0 84 1.5 ESE 17 19 9 10 - - 0.0
20/10:00pm 14.8 12.6 12.1 84 1.5 E 15 19 8 10 - - 0.0
20/09:30pm 15.1 13.2 12.9 87 1.2 E 15 19 8 10 - - 0.0
20/09:00pm 15.2 13.3 13.1 87 1.2 E 15 19 8 10 - - 0.0
20/08:30pm 15.2 12.7 13.4 89 1.0 E 19 20 10 11 - - 0.0
20/08:00pm 15.4 12.9 13.6 89 1.0 E 19 26 10 14 - - 0.0
20/07:30pm 16.3 12.8 12.2 77 2.3 ESE 22 26 12 14 - - 0.0
20/07:00pm 16.0 13.1 12.4 79 2.0 E 19 20 10 11 - - 0.0
20/06:30pm 16.3 12.8 12.3 77 2.2 E 22 24 12 13 - - 0.0
20/06:00pm 16.6 13.1 12.1 75 2.5 E 22 24 12 13 - - 0.0
20/05:30pm 16.8 12.4 12.9 78 2.2 E 28 32 15 17 - - 0.0

Other Formats:

Comma delimited format used in spreadsheet applications
http://www.bom.gov.au/fwo/IDQ60801/IDQ60801.99112.axf

JavaScript Object Notation format (JSON) in row-major order
http://www.bom.gov.au/fwo/IDQ60801/IDQ60801.99112.json